Time;durP1;ratioP1;P1;durP2;ratioP2;P2;SDS_P1;SDS_P2;PMS_P1;PMS_P2;Temp;Humidity;BMP_temperature;BMP_pressure;BME280_temperature;BME280_humidity;BME280_pressure;Samples;Min_cycle;Max_cycle;Signal;HPM_P1;HPM_P2
2022/03/02 00:00:58;;;;;;;20.17;11.57;;;;;;;2.92;82.66;100535.75;5027862;28;20049;-73
2022/03/02 00:03:24;;;;;;;16.80;9.93;;;;;;;2.99;81.47;100534.44;5029983;28;20378;-73
2022/03/02 00:05:49;;;;;;;19.93;10.63;;;;;;;3.12;81.04;100537.13;5011829;28;20045;-73
2022/03/02 00:08:14;;;;;;;21.67;10.97;;;;;;;3.16;80.13;100515.09;5010483;28;20030;-73
2022/03/02 00:10:40;;;;;;;19.50;10.53;;;;;;;3.16;80.15;100522.97;5036951;28;20265;-73
2022/03/02 00:13:05;;;;;;;19.77;10.70;;;;;;;2.92;80.86;100522.69;5028238;28;20319;-72
2022/03/02 00:15:31;;;;;;;22.63;11.10;;;;;;;2.80;81.20;100529.50;5028235;28;20063;-72
2022/03/02 00:17:56;;;;;;;21.13;11.00;;;;;;;2.63;81.84;100518.38;5028336;28;20136;-72
2022/03/02 00:20:22;;;;;;;22.53;10.53;;;;;;;2.65;81.73;100514.75;5028320;28;20041;-73
2022/03/02 00:22:48;;;;;;;23.23;10.50;;;;;;;2.81;81.72;100514.66;5029258;28;20378;-73
2022/03/02 00:25:13;;;;;;;18.67;10.57;;;;;;;2.85;80.41;100505.69;5028300;28;20247;-73
2022/03/02 00:27:39;;;;;;;19.57;10.40;;;;;;;2.75;80.96;100508.03;5026509;28;20029;-73
2022/03/02 00:30:08;;;;;;;20.63;11.20;;;;;;;2.71;80.66;100503.91;5028304;28;20037;-73
2022/03/02 00:32:33;;;;;;;21.13;10.43;;;;;;;2.81;80.34;100499.78;5028957;28;20213;-72
2022/03/02 00:34:59;;;;;;;16.33;9.87;;;;;;;2.80;80.38;100502.50;5027048;28;20033;-72
2022/03/02 00:37:24;;;;;;;16.17;9.40;;;;;;;2.56;80.82;100478.69;5030568;28;20043;-72
2022/03/02 00:39:50;;;;;;;16.83;9.40;;;;;;;2.81;80.56;100494.56;5027636;28;20272;-72
2022/03/02 00:42:15;;;;;;;16.40;9.30;;;;;;;2.98;79.63;100487.44;5026590;28;20358;-72
2022/03/02 00:44:42;;;;;;;13.77;8.50;;;;;;;3.14;79.11;100496.06;5028811;28;20030;-73
2022/03/02 00:47:08;;;;;;;16.57;9.47;;;;;;;3.33;77.46;100491.31;5025727;28;20332;-73
2022/03/02 00:49:35;;;;;;;16.47;9.30;;;;;;;3.40;77.30;100495.22;5027998;28;20032;-73
2022/03/02 00:52:02;;;;;;;14.17;8.90;;;;;;;3.50;76.71;100479.78;5027487;28;20038;-73
2022/03/02 00:54:28;;;;;;;15.87;8.67;;;;;;;3.52;76.48;100491.81;5028020;28;20400;-73
2022/03/02 00:56:53;;;;;;;14.67;8.47;;;;;;;3.48;76.91;100486.88;5027856;28;20084;-73
2022/03/02 00:59:19;;;;;;;16.27;8.97;;;;;;;3.40;76.52;100478.69;5027279;28;20088;-73
2022/03/02 01:01:44;;;;;;;16.57;8.50;;;;;;;3.45;76.06;100482.69;5028173;28;20057;-73
2022/03/02 01:04:10;;;;;;;17.53;9.47;;;;;;;3.47;75.83;100472.97;5009902;28;20026;-73
2022/03/02 01:06:36;;;;;;;13.63;8.70;;;;;;;3.38;75.36;100470.09;5027035;28;20040;-73
2022/03/02 01:09:02;;;;;;;13.70;8.07;;;;;;;3.54;75.13;100470.78;5030072;28;20040;-73
2022/03/02 01:11:27;;;;;;;12.20;7.80;;;;;;;3.77;74.16;100472.72;5029833;28;20093;-73
2022/03/02 01:13:53;;;;;;;13.90;7.80;;;;;;;3.84;72.71;100463.53;5027501;28;20083;-73
2022/03/02 01:16:18;;;;;;;12.60;7.93;;;;;;;3.91;72.37;100463.97;5027921;28;20331;-73
2022/03/02 01:18:44;;;;;;;12.33;7.63;;;;;;;3.75;73.26;100473.78;5027718;28;20069;-73
2022/03/02 01:21:10;;;;;;;13.30;7.20;;;;;;;3.74;72.72;100461.63;5028698;28;20040;-73
2022/03/02 01:23:35;;;;;;;12.97;7.53;;;;;;;3.91;72.22;100452.63;5029202;28;20053;-73
2022/03/02 01:26:01;;;;;;;214.80;38.43;;;;;;;4.03;72.40;100467.53;5027735;28;20041;-73
2022/03/02 01:28:26;;;;;;;51.50;15.80;;;;;;;4.11;71.73;100450.34;5026722;28;20037;-73
2022/03/02 01:30:52;;;;;;;73.93;18.53;;;;;;;4.20;71.11;100462.03;5027838;28;21116;-73
2022/03/02 01:33:17;;;;;;;32.33;11.90;;;;;;;4.00;72.12;100447.63;5026816;28;20030;-72
2022/03/02 01:35:43;;;;;;;28.97;12.30;;;;;;;4.19;71.21;100438.56;5015487;28;20041;-72
2022/03/02 01:38:08;;;;;;;20.37;11.17;;;;;;;4.35;70.41;100432.16;5026910;28;20036;-72
2022/03/02 01:40:34;;;;;;;33.13;12.97;;;;;;;4.26;70.97;100437.19;5028535;28;20037;-73
2022/03/02 01:42:59;;;;;;;89.07;23.77;;;;;;;4.23;71.13;100433.00;5028025;28;20331;-73
2022/03/02 01:45:25;;;;;;;45.53;16.57;;;;;;;4.33;70.55;100430.59;5026431;28;20048;-73
2022/03/02 01:47:50;;;;;;;61.60;19.63;;;;;;;4.35;71.04;100431.31;5028879;28;20048;-73
2022/03/02 01:50:16;;;;;;;45.40;17.47;;;;;;;4.34;70.70;100422.59;5024771;28;20064;-73
2022/03/02 01:52:42;;;;;;;93.43;27.03;;;;;;;4.49;69.30;100420.72;5028524;28;20273;-73
2022/03/02 01:55:09;;;;;;;36.43;16.27;;;;;;;4.48;69.42;100425.13;5025834;28;20037;-73
2022/03/02 01:57:35;;;;;;;35.97;14.70;;;;;;;4.55;69.32;100422.06;5033271;28;20025;-73
2022/03/02 02:00:05;;;;;;;28.43;11.90;;;;;;;4.63;69.30;100423.19;5028314;28;20113;-73
2022/03/02 02:02:31;;;;;;;22.83;11.33;;;;;;;4.58;69.10;100421.84;5024647;28;20029;-73
2022/03/02 02:04:56;;;;;;;20.80;10.33;;;;;;;4.42;69.10;100420.28;5026905;28;20037;-73
2022/03/02 02:07:22;;;;;;;19.83;10.13;;;;;;;4.37;68.84;100414.53;5028029;28;20034;-73
2022/03/02 02:09:49;;;;;;;19.03;9.87;;;;;;;4.36;68.76;100414.63;5025810;28;20037;-73
2022/03/02 02:12:14;;;;;;;19.30;10.90;;;;;;;4.37;69.01;100400.59;5017460;28;20274;-73
2022/03/02 02:14:40;;;;;;;20.07;10.33;;;;;;;4.30;69.64;100408.03;5018671;28;20033;-73
2022/03/02 02:17:05;;;;;;;21.33;10.57;;;;;;;4.33;69.80;100401.75;5024831;28;20057;-73
2022/03/02 02:19:30;;;;;;;18.80;11.60;;;;;;;4.09;70.13;100373.63;5027158;28;20044;-73
2022/03/02 02:21:56;;;;;;;24.20;15.77;;;;;;;4.37;70.60;100398.81;5025675;28;20274;-73
2022/03/02 02:24:21;;;;;;;23.87;13.60;;;;;;;4.42;70.12;100398.47;5026629;28;20357;-73
2022/03/02 02:26:47;;;;;;;21.63;10.83;;;;;;;4.46;69.69;100399.94;5030043;28;20045;-73
2022/03/02 02:29:12;;;;;;;29.00;12.73;;;;;;;4.51;69.42;100400.47;5035298;28;20093;-73
2022/03/02 02:31:39;;;;;;;26.60;13.27;;;;;;;4.46;69.64;100390.28;5014926;28;20057;-73
2022/03/02 02:34:05;;;;;;;25.07;14.07;;;;;;;4.46;69.60;100395.53;5029133;28;20033;-73
2022/03/02 02:36:31;;;;;;;21.40;12.53;;;;;;;4.49;70.09;100405.81;5030927;28;20056;-73
2022/03/02 02:38:56;;;;;;;19.23;11.03;;;;;;;4.42;71.36;100399.31;5030239;28;20037;-72
2022/03/02 02:41:22;;;;;;;20.17;11.83;;;;;;;4.38;71.57;100402.25;5029939;28;20041;-72
2022/03/02 02:43:47;;;;;;;19.03;10.90;;;;;;;4.27;71.55;100389.06;5030813;28;20044;-73
2022/03/02 02:46:13;;;;;;;21.33;12.57;;;;;;;4.26;71.00;100392.63;5030102;28;20029;-73
2022/03/02 02:48:39;;;;;;;22.13;11.50;;;;;;;4.35;70.64;100395.44;5029363;28;20049;-73
2022/03/02 02:51:06;;;;;;;22.43;11.73;;;;;;;4.39;70.14;100388.22;5030731;28;20041;-73
2022/03/02 02:53:31;;;;;;;18.27;10.33;;;;;;;4.49;69.81;100394.47;5030144;28;20033;-73
2022/03/02 02:55:56;;;;;;;19.90;11.37;;;;;;;4.43;70.21;100393.13;5029773;28;20049;-73
2022/03/02 02:58:22;;;;;;;15.33;9.50;;;;;;;4.52;70.39;100383.78;5029340;28;20033;-73
2022/03/02 03:00:52;;;;;;;16.47;8.73;;;;;;;4.19;71.59;100386.97;5029833;28;20366;-73
2022/03/02 03:03:19;;;;;;;16.37;9.63;;;;;;;4.33;70.77;100378.97;5031231;28;20415;-73
2022/03/02 03:05:44;;;;;;;12.13;7.27;;;;;;;4.29;71.37;100380.13;5028565;28;20025;-73
2022/03/02 03:08:11;;;;;;;15.43;8.57;;;;;;;4.29;71.38;100385.38;5030771;28;20032;-73
2022/03/02 03:10:38;;;;;;;16.03;8.53;;;;;;;4.28;71.98;100386.31;5031675;28;20061;-73
2022/03/02 03:13:04;;;;;;;13.73;8.00;;;;;;;4.37;71.58;100384.84;5010901;28;20026;-73
2022/03/02 03:15:30;;;;;;;14.63;8.03;;;;;;;4.40;70.99;100380.22;5029529;28;20061;-73
2022/03/02 03:17:56;;;;;;;15.70;8.33;;;;;;;4.30;71.32;100379.19;5029816;28;20041;-73
2022/03/02 03:20:25;;;;;;;16.60;8.40;;;;;;;4.21;71.99;100387.69;5011314;28;20029;-73
2022/03/02 03:22:51;;;;;;;18.17;9.03;;;;;;;4.21;72.19;100384.25;5028590;28;20101;-73
2022/03/02 03:25:17;;;;;;;16.57;8.93;;;;;;;4.24;72.44;100384.03;5031300;28;20076;-73
2022/03/02 03:27:43;;;;;;;16.40;8.70;;;;;;;4.12;72.14;100377.81;5029691;28;20025;-73
2022/03/02 03:30:10;;;;;;;15.70;8.83;;;;;;;4.09;72.17;100372.78;5028645;28;20025;-74
2022/03/02 03:32:36;;;;;;;19.17;9.40;;;;;;;4.20;71.80;100378.16;5030760;28;20084;-73
2022/03/02 03:35:03;;;;;;;21.20;10.57;;;;;;;4.23;71.58;100374.47;5029502;28;20048;-73
2022/03/02 03:37:29;;;;;;;24.37;11.67;;;;;;;4.16;72.06;100371.41;5026631;28;20025;-73
2022/03/02 03:39:55;;;;;;;23.37;11.93;;;;;;;4.22;72.04;100378.06;5030383;28;20063;-73
2022/03/02 03:42:21;;;;;;;18.50;10.00;;;;;;;4.15;71.58;100381.06;5012693;28;20339;-75
2022/03/02 03:44:46;;;;;;;21.07;10.57;;;;;;;4.07;72.20;100372.06;5024496;28;20104;-74
2022/03/02 03:47:12;;;;;;;28.90;12.70;;;;;;;4.07;72.35;100382.53;5029417;28;20049;-74
2022/03/02 03:49:37;;;;;;;31.03;12.60;;;;;;;4.06;72.47;100381.69;5029167;28;20060;-73
2022/03/02 03:52:03;;;;;;;27.00;13.13;;;;;;;4.03;72.95;100376.66;5028911;28;20049;-73
2022/03/02 03:54:28;;;;;;;28.73;12.70;;;;;;;4.09;72.37;100371.00;5031167;28;20017;-74
2022/03/02 03:56:54;;;;;;;32.43;14.67;;;;;;;4.02;72.43;100371.53;5028530;28;20037;-73
2022/03/02 03:59:19;;;;;;;34.40;15.53;;;;;;;3.96;72.92;100370.16;5031263;28;20259;-73
2022/03/02 04:01:45;;;;;;;28.27;13.77;;;;;;;3.92;73.21;100362.63;5028442;28;20092;-73
2022/03/02 04:04:10;;;;;;;46.40;18.50;;;;;;;3.87;73.72;100355.06;5028059;28;20311;-73
2022/03/02 04:06:36;;;;;;;61.20;20.27;;;;;;;3.83;73.53;100359.69;5027120;28;20039;-73
2022/03/02 04:09:03;;;;;;;42.33;17.87;;;;;;;3.93;73.16;100359.91;5011238;28;20022;-73
2022/03/02 04:11:29;;;;;;;33.70;16.13;;;;;;;3.73;74.09;100363.88;5028192;28;20335;-73
2022/03/02 04:13:54;;;;;;;31.50;14.67;;;;;;;3.88;73.58;100361.16;5029205;28;20033;-73
2022/03/02 04:16:20;;;;;;;44.23;15.60;;;;;;;3.93;73.21;100361.69;5028876;28;20338;-73
2022/03/02 04:18:45;;;;;;;45.57;16.50;;;;;;;3.83;73.85;100357.06;5027664;28;20317;-73
2022/03/02 04:21:11;;;;;;;51.63;18.03;;;;;;;3.88;74.08;100355.91;5029819;28;20315;-73
2022/03/02 04:23:36;;;;;;;33.80;16.40;;;;;;;3.77;73.89;100349.63;5026840;28;20378;-73
2022/03/02 04:26:02;;;;;;;31.57;16.03;;;;;;;3.77;73.82;100348.78;5029811;28;20049;-73
2022/03/02 04:28:29;;;;;;;72.57;21.30;;;;;;;3.70;73.95;100356.22;5027803;28;20295;-73
2022/03/02 04:30:55;;;;;;;57.87;19.97;;;;;;;3.49;74.72;100353.25;5027498;28;20040;-72
2022/03/02 04:33:20;;;;;;;43.93;17.30;;;;;;;3.48;75.46;100348.97;5028981;28;20037;-73
2022/03/02 04:35:46;;;;;;;31.40;15.57;;;;;;;3.59;74.57;100344.78;5027798;28;20056;-73
2022/03/02 04:38:11;;;;;;;28.37;15.30;;;;;;;3.51;74.44;100345.31;5026508;28;20084;-73
2022/03/02 04:40:37;;;;;;;26.10;13.97;;;;;;;3.49;74.49;100331.47;5028971;28;20339;-73
2022/03/02 04:43:03;;;;;;;23.87;12.83;;;;;;;3.55;74.35;100341.53;5027111;28;20046;-73
2022/03/02 04:45:28;;;;;;;24.00;13.07;;;;;;;3.56;74.33;100352.84;5026503;28;20060;-73
2022/03/02 04:47:56;;;;;;;26.00;12.70;;;;;;;3.60;74.21;100343.84;5028436;28;20045;-73
2022/03/02 04:50:22;;;;;;;33.43;17.63;;;;;;;3.54;74.31;100342.47;5028456;28;20038;-73
2022/03/02 04:52:49;;;;;;;32.93;17.57;;;;;;;3.46;74.77;100340.38;5028328;28;20052;-73
2022/03/02 04:55:16;;;;;;;37.27;17.20;;;;;;;3.48;74.66;100337.66;5029005;28;20101;-73
2022/03/02 04:57:48;;;;;;;33.90;15.83;;;;;;;3.45;74.10;100316.91;5026287;28;20083;-73
2022/03/02 05:00:26;;;;;;;28.23;13.57;;;;;;;3.61;73.34;100348.16;5018734;28;20041;-73
2022/03/02 05:02:52;;;;;;;29.10;13.67;;;;;;;3.59;73.28;100345.63;5009707;28;20033;-73
2022/03/02 05:05:19;;;;;;;20.63;10.87;;;;;;;3.55;72.77;100346.78;5029017;28;20057;-73
2022/03/02 05:07:45;;;;;;;33.07;15.20;;;;;;;3.56;73.32;100348.44;5027104;28;20030;-74
2022/03/02 05:10:13;;;;;;;27.53;12.63;;;;;;;3.55;74.18;100343.31;5027621;28;20045;-73
2022/03/02 05:12:39;;;;;;;45.53;19.77;;;;;;;3.56;75.14;100356.31;5027521;28;20036;-73
2022/03/02 05:15:08;;;;;;;43.80;20.00;;;;;;;3.58;74.89;100350.97;5027179;28;20029;-73
2022/03/02 05:17:35;;;;;;;52.37;20.83;;;;;;;3.73;74.36;100355.16;5026330;28;20053;-73
2022/03/02 05:20:00;;;;;;;51.67;20.07;;;;;;;3.60;74.03;100325.50;5027944;28;20033;-73
2022/03/02 05:22:26;;;;;;;75.97;27.83;;;;;;;3.90;73.34;100352.25;5026191;28;20148;-73
2022/03/02 05:24:51;;;;;;;84.67;32.40;;;;;;;3.87;73.34;100349.00;5024890;28;20443;-73
2022/03/02 05:27:17;;;;;;;87.30;33.97;;;;;;;3.90;73.79;100348.78;5023708;28;20302;-74
2022/03/02 05:29:42;;;;;;;105.17;42.30;;;;;;;3.88;74.07;100345.44;5024895;28;20037;-73
2022/03/02 05:32:08;;;;;;;90.10;35.83;;;;;;;3.89;73.75;100342.72;5023190;28;20040;-73
2022/03/02 05:34:34;;;;;;;71.93;31.13;;;;;;;3.85;74.31;100349.94;5023470;28;20319;-73
2022/03/02 05:36:59;;;;;;;46.03;25.23;;;;;;;3.79;74.28;100345.13;5024897;28;20044;-73
2022/03/02 05:39:25;;;;;;;66.43;25.47;;;;;;;3.94;74.42;100348.47;5023946;28;20071;-73
2022/03/02 05:41:51;;;;;;;72.23;23.10;;;;;;;4.03;74.07;100341.75;5024769;28;20044;-74
2022/03/02 05:44:17;;;;;;;66.40;22.10;;;;;;;3.80;75.37;100348.56;5022849;28;20037;-73
2022/03/02 05:46:43;;;;;;;45.60;20.13;;;;;;;3.84;74.97;100348.25;5018783;28;20263;-73
2022/03/02 05:49:09;;;;;;;49.13;19.83;;;;;;;4.06;73.99;100354.66;5023671;28;20303;-73
2022/03/02 05:51:35;;;;;;;40.63;18.67;;;;;;;4.20;73.55;100356.34;5024693;28;20080;-73
2022/03/02 05:54:03;;;;;;;37.87;17.57;;;;;;;4.30;73.20;100354.75;5024378;28;20048;-73
2022/03/02 05:56:29;;;;;;;46.53;19.50;;;;;;;4.09;73.34;100339.56;5023828;28;20223;-73
2022/03/02 05:58:55;;;;;;;33.40;16.90;;;;;;;3.99;74.35;100362.09;5024607;28;20033;-73
2022/03/02 06:01:20;;;;;;;64.77;24.03;;;;;;;3.70;75.43;100366.69;5022716;28;20040;-73
2022/03/02 06:03:47;;;;;;;75.67;27.17;;;;;;;3.79;75.14;100360.84;5024030;28;20046;-72
2022/03/02 06:06:12;;;;;;;160.57;39.47;;;;;;;4.12;74.53;100364.72;5024513;28;20053;-72
2022/03/02 06:08:38;;;;;;;50.37;22.97;;;;;;;4.31;74.21;100366.94;5023652;28;20068;-73
2022/03/02 06:11:03;;;;;;;52.47;23.87;;;;;;;4.16;74.23;100366.19;5024563;28;20034;-73
2022/03/02 06:13:29;;;;;;;36.73;20.43;;;;;;;4.00;75.38;100370.78;5024579;28;20041;-73
2022/03/02 06:15:57;;;;;;;34.67;19.73;;;;;;;3.80;76.12;100369.53;5026471;28;21193;-73
2022/03/02 06:18:23;;;;;;;28.00;17.30;;;;;;;3.87;76.19;100372.56;5027021;28;20030;-74
2022/03/02 06:20:51;;;;;;;33.10;18.53;;;;;;;4.09;76.51;100371.00;5007996;28;20037;-73
2022/03/02 06:23:18;;;;;;;34.50;17.97;;;;;;;4.27;75.48;100362.84;5026181;28;20045;-72
2022/03/02 06:25:44;;;;;;;32.33;16.30;;;;;;;4.12;75.85;100372.56;5027688;28;20040;-73
2022/03/02 06:28:10;;;;;;;33.33;16.20;;;;;;;4.11;76.39;100373.53;5026549;28;20026;-73
2022/03/02 06:30:36;;;;;;;27.40;14.27;;;;;;;4.24;75.42;100363.91;5017566;28;20088;-73
2022/03/02 06:33:01;;;;;;;30.80;15.10;;;;;;;4.40;75.65;100369.75;5026375;28;20034;-73
2022/03/02 06:35:27;;;;;;;27.57;14.70;;;;;;;4.65;73.51;100375.88;5026896;28;20347;-73
2022/03/02 06:37:52;;;;;;;25.90;15.27;;;;;;;4.56;72.35;100373.91;5025677;28;20438;-73
2022/03/02 06:40:18;;;;;;;28.13;13.60;;;;;;;4.64;72.97;100367.16;5022250;28;20047;-73
2022/03/02 06:43:02;;;;;;;27.43;15.30;;;;;;;4.85;73.04;100370.03;5024970;28;20235;-73
2022/03/02 06:45:44;;;;;;;21.75;13.32;;;;;;;4.31;73.24;100314.50;5021219;28;20320;-73
2022/03/02 06:48:09;;;;;;;24.90;13.27;;;;;;;4.70;72.62;100369.34;5023927;28;20037;-73
2022/03/02 06:50:37;;;;;;;27.60;14.50;;;;;;;4.55;73.14;100373.06;5023488;28;20232;-73
2022/03/02 06:53:04;;;;;;;23.07;13.13;;;;;;;4.57;73.33;100365.94;5023958;28;20029;-73
2022/03/02 06:55:30;;;;;;;39.33;18.70;;;;;;;4.79;72.70;100366.06;5023413;28;20041;-73
2022/03/02 06:57:59;;;;;;;55.20;21.87;;;;;;;5.11;71.65;100366.38;5023220;28;20092;-73
2022/03/02 07:00:25;;;;;;;43.93;18.53;;;;;;;5.41;70.36;100365.94;5025360;28;20369;-73
2022/03/02 07:03:14;;;;;;;31.63;15.50;;;;;;;5.61;68.75;100371.47;5026070;28;20096;-73
2022/03/02 07:05:39;;;;;;;34.70;15.57;;;;;;;5.65;68.50;100365.88;5023213;28;20080;-73
2022/03/02 07:08:05;;;;;;;30.13;15.50;;;;;;;5.88;68.50;100348.38;5021732;28;20022;-74
2022/03/02 07:10:33;;;;;;;35.17;17.27;;;;;;;6.28;67.14;100351.44;5024401;28;20041;-74
2022/03/02 07:13:01;;;;;;;35.28;18.30;;;;;;;6.29;66.63;100358.38;5027439;28;20025;-74
2022/03/02 07:15:26;;;;;;;28.52;14.98;;;;;;;6.25;66.54;100345.59;5026554;28;20029;-74
2022/03/02 07:17:52;;;;;;;28.13;14.63;;;;;;;5.88;66.39;100339.66;5025825;28;20219;-74
2022/03/02 07:20:17;;;;;;;28.10;15.43;;;;;;;6.18;65.36;100349.63;5026517;28;20331;-75
2022/03/02 07:22:53;;;;;;;30.50;16.13;;;;;;;6.46;64.76;100343.91;5028979;28;20030;-74
2022/03/02 07:25:29;;;;;;;32.85;15.07;;;;;;;6.46;63.01;100338.63;5024996;28;20057;-74
2022/03/02 07:27:57;;;;;;;29.88;16.50;;;;;;;6.51;64.63;100333.00;5027331;28;20053;-74
2022/03/02 07:30:23;;;;;;;41.92;18.10;;;;;;;6.13;65.07;100331.56;5025715;28;20041;-74
2022/03/02 07:32:56;;;;;;;27.88;15.98;;;;;;;6.04;65.76;100333.13;5029009;28;20093;-73
2022/03/02 07:35:23;;;;;;;36.90;18.90;;;;;;;6.17;64.87;100330.38;5026220;28;20153;-73
2022/03/02 07:37:49;;;;;;;33.60;16.58;;;;;;;6.44;65.88;100324.78;5028375;28;20036;-73
2022/03/02 07:40:15;;;;;;;29.20;16.00;;;;;;;6.84;62.18;100318.94;5028963;28;20045;-73
2022/03/02 07:42:41;;;;;;;30.25;15.70;;;;;;;7.13;61.60;100317.41;5026495;28;20089;-73
2022/03/02 07:45:08;;;;;;;26.85;15.30;;;;;;;6.85;60.66;100289.03;5028049;28;20033;-73
2022/03/02 07:47:34;;;;;;;40.63;18.80;;;;;;;7.19;60.58;100316.91;5032561;28;20548;-74
2022/03/02 07:50:00;;;;;;;29.30;15.82;;;;;;;7.32;60.56;100309.69;5026671;28;20270;-73
2022/03/02 07:52:28;;;;;;;27.90;15.38;;;;;;;7.52;59.04;100296.66;5011375;28;20025;-74
2022/03/02 07:54:58;;;;;;;27.42;15.30;;;;;;;7.86;59.20;100307.81;5040051;28;20255;-74
2022/03/02 07:57:24;;;;;;;23.48;13.82;;;;;;;7.96;57.87;100300.78;5030311;28;20037;-74
2022/03/02 07:59:52;;;;;;;28.42;14.75;;;;;;;7.56;57.81;100292.78;5024516;28;20156;-74
2022/03/02 08:02:20;;;;;;;26.42;15.38;;;;;;;7.56;58.85;100290.16;5025764;28;20073;-73
2022/03/02 08:04:54;;;;;;;22.98;13.02;;;;;;;7.50;58.77;100272.22;5024919;28;20220;-74
2022/03/02 08:07:20;;;;;;;17.08;9.05;;;;;;;7.68;54.96;100281.19;5028653;28;20319;-74
2022/03/02 08:09:45;;;;;;;13.23;7.90;;;;;;;7.55;54.26;100278.78;5025021;28;20037;-74
2022/03/02 08:12:12;;;;;;;14.27;8.93;;;;;;;7.67;53.93;100269.81;5024352;28;20033;-74
2022/03/02 08:14:37;;;;;;;17.63;10.20;;;;;;;8.04;54.85;100266.66;5023585;28;20029;-74
2022/03/02 08:17:04;;;;;;;18.88;8.55;;;;;;;8.20;54.02;100266.16;5024605;28;20045;-74
2022/03/02 08:19:30;;;;;;;14.23;8.98;;;;;;;8.22;52.96;100262.41;5025877;28;20037;-74
2022/03/02 08:22:04;;;;;;;13.95;8.48;;;;;;;8.21;53.02;100247.56;5024029;28;20049;-74
2022/03/02 08:24:30;;;;;;;13.95;8.98;;;;;;;8.53;52.77;100259.78;5024333;28;20075;-74
2022/03/02 08:27:02;;;;;;;18.08;8.88;;;;;;;8.75;51.69;100250.78;5030026;28;20389;-74
2022/03/02 08:29:30;;;;;;;12.60;8.05;;;;;;;8.57;52.89;100242.69;5026265;28;20220;-74
2022/03/02 08:32:01;;;;;;;15.75;9.48;;;;;;;8.71;51.11;100213.25;5027440;28;20236;-74
2022/03/02 08:34:28;;;;;;;13.85;8.02;;;;;;;8.90;50.32;100252.88;5024903;28;20075;-74
2022/03/02 08:36:54;;;;;;;13.60;8.10;;;;;;;9.04;49.19;100230.47;5024441;28;20049;-74
2022/03/02 08:39:19;;;;;;;13.60;7.95;;;;;;;8.69;51.55;100238.97;5024430;28;20311;-74
2022/03/02 08:41:45;;;;;;;12.43;8.13;;;;;;;9.06;52.95;100230.34;5026569;28;20048;-74
2022/03/02 08:44:12;;;;;;;13.90;8.18;;;;;;;9.27;49.77;100223.06;5023471;28;20041;-74
2022/03/02 08:46:39;;;;;;;16.55;7.82;;;;;;;8.71;50.04;100226.44;5024310;28;20049;-74
2022/03/02 08:49:05;;;;;;;14.43;8.05;;;;;;;9.25;50.67;100227.66;5025566;28;20034;-73
2022/03/02 08:51:33;;;;;;;10.98;7.80;;;;;;;9.29;49.26;100221.97;5024724;28;20084;-74
2022/03/02 08:54:00;;;;;;;9.82;6.60;;;;;;;9.16;47.90;100221.44;5027344;28;20238;-74
2022/03/02 08:56:27;;;;;;;10.13;6.35;;;;;;;8.99;47.28;100205.47;5024368;28;20038;-73
2022/03/02 08:58:54;;;;;;;11.35;6.72;;;;;;;9.17;47.46;100209.88;5024237;28;20033;-73
2022/03/02 09:01:19;;;;;;;9.27;6.38;;;;;;;8.86;47.35;100205.75;5023413;28;20058;-73
2022/03/02 09:03:48;;;;;;;8.75;5.80;;;;;;;9.01;46.46;100203.50;5004260;28;20078;-74
2022/03/02 09:06:15;;;;;;;11.00;6.45;;;;;;;8.84;46.65;100203.25;5003132;28;20112;-74
2022/03/02 09:08:41;;;;;;;11.88;7.35;;;;;;;8.41;49.30;100203.66;5004100;28;20101;-74
2022/03/02 09:11:08;;;;;;;12.32;6.35;;;;;;;8.27;49.73;100209.25;5004009;28;20081;-74
2022/03/02 09:13:36;;;;;;;10.77;6.63;;;;;;;8.29;50.93;100205.50;5004027;28;20241;-74
2022/03/02 09:16:02;;;;;;;8.63;5.72;;;;;;;8.64;48.96;100199.78;5003087;28;20316;-73
2022/03/02 09:18:28;;;;;;;7.35;5.05;;;;;;;8.85;48.05;100182.94;5004300;28;20021;-74
2022/03/02 09:21:03;;;;;;;12.45;6.68;;;;;;;9.05;47.66;100196.97;5003971;28;20037;-73
2022/03/02 10:00:47;;;;;;;9.93;6.15;;;;;;;9.15;46.79;100110.59;5116876;27;20667;-75
2022/03/02 10:03:18;;;;;;;8.57;5.70;;;;;;;9.15;46.35;100103.50;5115442;28;20039;-77
2022/03/02 10:05:48;;;;;;;8.93;5.80;;;;;;;9.49;48.42;100109.09;5116638;28;20090;-78
2022/03/02 10:08:19;;;;;;;9.57;6.07;;;;;;;9.03;48.75;100098.53;5116512;28;20036;-77
2022/03/02 10:10:48;;;;;;;8.02;5.50;;;;;;;9.04;48.77;100100.22;5116132;28;20027;-77
2022/03/02 10:13:16;;;;;;;7.57;4.93;;;;;;;9.02;47.23;100070.47;5113991;28;20350;-77
2022/03/02 10:15:43;;;;;;;5.28;4.47;;;;;;;9.40;47.41;100085.38;5115121;28;20023;-77
2022/03/02 10:18:12;;;;;;;6.47;4.97;;;;;;;9.20;45.95;100087.22;5116150;28;20032;-77
2022/03/02 10:20:43;;;;;;;6.43;4.40;;;;;;;9.06;46.51;100079.78;5115748;28;20035;-77
2022/03/02 10:23:32;;;;;;;6.53;4.32;;;;;;;9.20;45.18;100081.94;5114430;28;20103;-77
2022/03/02 10:26:05;;;;;;;8.57;4.82;;;;;;;9.20;46.38;100066.91;5115666;28;20023;-77
2022/03/02 10:28:44;;;;;;;10.77;6.30;;;;;;;9.42;47.72;100064.91;5116067;28;20329;-77
2022/03/02 10:31:15;;;;;;;9.38;5.78;;;;;;;9.08;48.38;100060.16;5115122;28;20351;-77
2022/03/02 10:33:47;;;;;;;5.82;4.93;;;;;;;8.97;47.34;100047.13;5113527;28;20051;-78
2022/03/02 10:36:13;;;;;;;8.60;5.03;;;;;;;9.28;47.28;100048.53;5114665;28;20032;-77
2022/03/02 10:38:39;;;;;;;8.98;5.47;;;;;;;9.48;47.22;100038.72;5115453;28;20052;-77
2022/03/02 10:41:08;;;;;;;9.43;5.13;;;;;;;9.30;45.82;100032.53;5115272;28;20349;-78
2022/03/02 10:43:56;;;;;;;8.95;5.18;;;;;;;9.38;48.27;100018.59;5109235;28;20051;-78
2022/03/02 10:46:23;;;;;;;9.82;4.97;;;;;;;9.20;49.54;100029.09;5108738;28;20036;-77
2022/03/02 10:49:07;;;;;;;9.90;5.30;;;;;;;9.13;50.92;100023.56;5105996;28;20132;-77
2022/03/02 10:51:35;;;;;;;6.97;4.78;;;;;;;9.44;48.85;100012.72;5108840;28;20349;-77
2022/03/02 10:54:06;;;;;;;10.15;5.78;;;;;;;9.46;47.30;100010.78;5108232;28;20150;-77
2022/03/02 10:56:41;;;;;;;10.93;5.20;;;;;;;9.41;48.00;99991.88;5112038;28;20065;-77
2022/03/02 10:59:16;;;;;;;6.88;4.72;;;;;;;9.51;46.66;100005.88;5109382;28;20052;-77
2022/03/02 11:01:42;;;;;;;6.05;4.25;;;;;;;9.23;46.16;99983.88;5096046;28;20028;-77
2022/03/02 11:04:08;;;;;;;6.63;4.70;;;;;;;9.33;46.59;100000.53;5094691;28;20036;-77
2022/03/02 11:06:35;;;;;;;7.15;5.03;;;;;;;9.18;45.56;99991.44;5095488;28;20047;-78
2022/03/02 11:09:02;;;;;;;8.98;5.25;;;;;;;8.89;45.07;99987.09;5095953;28;20052;-77
2022/03/02 11:11:32;;;;;;;8.80;5.60;;;;;;;8.91;46.18;99984.31;5093986;28;20031;-77
2022/03/02 11:13:57;;;;;;;7.35;5.20;;;;;;;8.85;44.85;99972.53;5096159;28;20752;-77
2022/03/02 11:16:25;;;;;;;7.25;4.53;;;;;;;9.15;45.03;99976.69;5094618;28;20205;-77
2022/03/02 11:18:55;;;;;;;5.57;4.30;;;;;;;8.95;45.06;99972.50;5094050;28;20072;-77
2022/03/02 11:21:31;;;;;;;9.68;4.82;;;;;;;9.09;45.21;99944.75;5094447;28;20031;-77
2022/03/02 11:24:05;;;;;;;22.83;7.20;;;;;;;9.31;43.39;99976.06;5093415;28;20032;-78
2022/03/02 11:26:37;;;;;;;8.48;3.92;;;;;;;9.43;43.03;99966.97;5111819;28;20023;-78
2022/03/02 11:29:07;;;;;;;10.38;4.22;;;;;;;9.49;42.22;99966.38;5093025;28;20044;-77
2022/03/02 11:31:43;;;;;;;10.75;4.70;;;;;;;9.53;43.95;99954.50;5094642;28;20206;-77
2022/03/02 11:34:27;;;;;;;7.57;4.90;;;;;;;9.88;44.23;99931.69;5094930;28;20301;-77
2022/03/02 11:37:04;;;;;;;6.70;4.63;;;;;;;9.89;41.99;99950.03;5093662;28;20028;-77
2022/03/02 11:39:30;;;;;;;11.95;5.15;;;;;;;9.90;41.63;99937.66;5093650;28;20062;-77
2022/03/02 11:42:00;;;;;;;8.15;4.50;;;;;;;10.09;40.43;99934.00;5094732;28;20033;-77
2022/03/02 11:44:30;;;;;;;7.82;4.45;;;;;;;10.41;39.72;99941.38;5094671;28;20027;-77
2022/03/02 11:46:56;;;;;;;5.53;4.10;;;;;;;10.30;38.55;99931.88;5095212;28;20024;-77
2022/03/02 11:49:42;;;;;;;5.82;4.10;;;;;;;10.38;36.92;99910.75;5094007;28;20116;-78
2022/03/02 11:52:18;;;;;;;8.35;5.10;;;;;;;10.20;38.31;99924.03;5095733;28;20324;-77
2022/03/02 11:54:50;;;;;;;8.50;5.28;;;;;;;10.05;39.81;99930.00;5096648;28;20032;-77
2022/03/02 11:57:17;;;;;;;7.72;4.78;;;;;;;9.96;40.42;99920.34;5095130;28;20036;-77
2022/03/02 11:59:44;;;;;;;8.68;4.95;;;;;;;10.00;40.57;99917.22;5093603;28;20329;-78